createdAt,value
2022-11-18T00:01:25.933Z,18.85
2022-11-18T00:03:53.138Z,23.10
2022-11-18T00:06:23.080Z,21.48
2022-11-18T00:08:50.397Z,17.60
2022-11-18T00:11:39.352Z,21.63
2022-11-18T00:14:20.189Z,21.30
2022-11-18T00:16:59.528Z,19.23
2022-11-18T00:19:32.510Z,19.02
2022-11-18T00:21:59.470Z,18.95
2022-11-18T00:24:26.250Z,18.83
2022-11-18T00:26:53.522Z,16.98
2022-11-18T00:29:21.162Z,20.60
2022-11-18T00:31:48.612Z,24.52
2022-11-18T00:34:16.999Z,17.60
2022-11-18T00:36:44.770Z,21.33
2022-11-18T00:39:12.994Z,21.00
2022-11-18T00:41:58.632Z,19.30
2022-11-18T00:44:25.446Z,22.17
2022-11-18T00:46:52.134Z,22.55
2022-11-18T00:49:19.169Z,20.98
2022-11-18T00:51:46.211Z,21.88
2022-11-18T00:54:12.887Z,21.70
2022-11-18T00:56:39.575Z,23.30
2022-11-18T00:59:06.427Z,20.88
2022-11-18T01:01:33.527Z,21.13
2022-11-18T01:04:01.979Z,21.88
2022-11-18T01:06:29.371Z,20.85
2022-11-18T01:08:56.058Z,21.48
2022-11-18T01:11:41.211Z,20.35
2022-11-18T01:14:07.972Z,19.23
2022-11-18T01:16:34.691Z,21.40
2022-11-18T01:19:01.401Z,23.70
2022-11-18T01:21:29.703Z,17.08
2022-11-18T01:23:56.455Z,19.80
2022-11-18T01:26:23.157Z,20.38
2022-11-18T01:28:49.908Z,19.20
2022-11-18T01:31:19.153Z,18.88
2022-11-18T01:33:46.736Z,19.70
2022-11-18T01:36:23.219Z,21.55
2022-11-18T01:38:50.839Z,22.55
2022-11-18T01:41:19.725Z,22.85
2022-11-18T01:43:52.694Z,22.35
2022-11-18T01:46:20.638Z,26.02
2022-11-18T01:48:52.589Z,23.23
2022-11-18T01:51:33.373Z,21.73
2022-11-18T01:54:05.634Z,20.30
2022-11-18T01:56:40.272Z,21.27
2022-11-18T01:59:11.803Z,26.38
2022-11-18T02:01:38.814Z,25.48
2022-11-18T02:04:07.199Z,21.88
2022-11-18T02:06:34.520Z,22.35
2022-11-18T02:09:02.086Z,21.88
2022-11-18T02:11:48.394Z,26.40
2022-11-18T02:14:43.323Z,21.60
2022-11-18T02:17:18.955Z,24.02
2022-11-18T02:20:12.189Z,25.58
2022-11-18T02:23:02.968Z,22.98
2022-11-18T02:25:58.740Z,22.90
2022-11-18T02:28:47.757Z,29.20
2022-11-18T02:31:40.915Z,22.80
2022-11-18T02:34:07.605Z,23.00
2022-11-18T02:36:43.975Z,26.50
2022-11-18T02:39:19.805Z,27.88
2022-11-18T02:41:49.266Z,22.90
2022-11-18T02:44:18.981Z,20.75
2022-11-18T02:46:52.231Z,25.75
2022-11-18T02:49:28.849Z,25.83
2022-11-18T02:51:58.026Z,28.13
2022-11-18T02:54:26.385Z,23.20
2022-11-18T02:56:53.881Z,23.40
2022-11-18T02:59:20.990Z,23.77
2022-11-18T03:01:48.226Z,21.95
2022-11-18T03:04:17.409Z,24.55
2022-11-18T03:06:53.518Z,24.98
2022-11-18T03:09:36.543Z,21.05
2022-11-18T03:12:21.298Z,24.38
2022-11-18T03:15:36.367Z,21.02
2022-11-18T03:18:18.585Z,27.70
2022-11-18T03:23:25.585Z,22.50
2022-11-18T03:26:20.686Z,23.42
2022-11-18T03:28:56.570Z,28.98
2022-11-18T03:31:58.390Z,26.55
2022-11-18T03:35:03.538Z,26.42
2022-11-18T03:37:33.838Z,31.40
2022-11-18T03:40:11.750Z,30.00
2022-11-18T03:42:45.027Z,26.73
2022-11-18T03:45:21.354Z,33.25
2022-11-18T03:47:58.247Z,26.75
2022-11-18T03:50:32.021Z,25.83
2022-11-18T03:53:01.786Z,30.05
2022-11-18T03:55:34.137Z,31.42
2022-11-18T03:58:07.314Z,27.25
2022-11-18T04:00:42.998Z,29.45
2022-11-18T04:03:11.041Z,28.30
2022-11-18T04:05:41.569Z,30.83
2022-11-18T04:08:19.493Z,35.75
2022-11-18T04:10:52.475Z,27.67
2022-11-18T04:13:24.338Z,33.40
2022-11-18T04:15:53.630Z,34.30
2022-11-18T04:18:20.747Z,28.75
2022-11-18T04:20:47.756Z,30.25
2022-11-18T04:23:14.540Z,29.27
2022-11-18T04:25:41.386Z,31.00
2022-11-18T04:28:08.926Z,30.38
2022-11-18T04:30:35.755Z,27.55
2022-11-18T04:33:02.706Z,33.55
2022-11-18T04:35:29.454Z,30.90
2022-11-18T04:37:56.161Z,25.98
2022-11-18T04:40:22.910Z,25.65
2022-11-18T04:42:49.576Z,31.95
2022-11-18T04:45:16.286Z,25.60
2022-11-18T04:47:43.035Z,28.40
2022-11-18T04:50:10.092Z,26.98
2022-11-18T04:52:36.794Z,30.27
2022-11-18T04:55:03.811Z,26.95
2022-11-18T04:57:30.533Z,29.55
2022-11-18T04:59:57.250Z,24.95
2022-11-18T05:02:23.955Z,22.83
2022-11-18T05:04:50.643Z,24.20
2022-11-18T05:07:17.476Z,23.25
2022-11-18T05:09:44.331Z,22.90
2022-11-18T05:12:33.903Z,21.70
2022-11-18T05:15:01.471Z,21.73
2022-11-18T05:17:28.201Z,18.98
2022-11-18T05:19:55.021Z,17.73
2022-11-18T05:22:21.747Z,20.17
2022-11-18T05:24:48.850Z,16.77
2022-11-18T05:27:16.381Z,19.48
2022-11-18T05:29:43.583Z,21.33
2022-11-18T05:32:10.586Z,22.08
2022-11-18T05:34:37.317Z,16.52
2022-11-18T05:37:04.065Z,18.52
2022-11-18T05:39:33.133Z,21.27
2022-11-18T05:42:18.697Z,18.52
2022-11-18T05:44:46.037Z,22.05
2022-11-18T05:47:12.880Z,17.90
2022-11-18T05:49:39.604Z,25.33
2022-11-18T05:52:06.327Z,15.85
2022-11-18T05:54:33.053Z,22.67
2022-11-18T05:56:59.812Z,14.45
2022-11-18T05:59:26.568Z,18.45
2022-11-18T06:01:56.007Z,22.15
2022-11-18T06:04:40.763Z,15.57
2022-11-18T06:07:16.398Z,24.55
2022-11-18T06:09:47.264Z,17.63
2022-11-18T06:12:18.417Z,22.40
2022-11-18T06:14:50.750Z,17.93
2022-11-18T06:17:24.462Z,14.82
2022-11-18T06:19:52.273Z,17.60
2022-11-18T06:22:19.448Z,17.60
2022-11-18T06:24:46.188Z,15.45
2022-11-18T06:27:14.433Z,17.30
2022-11-18T06:29:41.165Z,18.85
2022-11-18T06:32:07.966Z,18.25
2022-11-18T06:34:40.955Z,15.10
2022-11-18T06:37:16.415Z,18.63
2022-11-18T06:39:43.533Z,18.13
2022-11-18T06:42:10.551Z,17.77
2022-11-18T06:44:37.373Z,17.02
2022-11-18T06:47:05.313Z,14.63
2022-11-18T06:49:32.049Z,15.65
2022-11-18T06:51:58.768Z,15.73
2022-11-18T06:54:25.488Z,13.57
2022-11-18T06:56:52.262Z,15.25
2022-11-18T06:59:23.477Z,15.98
2022-11-18T07:01:51.084Z,19.73
2022-11-18T07:04:17.847Z,14.02
2022-11-18T07:06:44.566Z,17.83
2022-11-18T07:09:11.285Z,14.50
2022-11-18T07:11:40.404Z,12.75
2022-11-18T07:14:08.628Z,14.82
2022-11-18T07:16:36.561Z,15.27
2022-11-18T07:19:09.046Z,12.23
2022-11-18T07:21:35.755Z,12.45
2022-11-18T07:24:05.811Z,14.20
2022-11-18T07:26:32.756Z,10.98
2022-11-18T07:28:59.604Z,15.38
2022-11-18T07:31:26.335Z,16.52
2022-11-18T07:33:55.795Z,11.23
2022-11-18T07:36:25.472Z,14.27
2022-11-18T07:38:53.662Z,11.43
2022-11-18T07:41:26.506Z,10.98
2022-11-18T07:44:00.312Z,9.95
2022-11-18T07:46:36.249Z,11.48
2022-11-18T07:49:06.028Z,10.57
2022-11-18T07:51:35.539Z,13.27
2022-11-18T07:54:06.744Z,12.52
2022-11-18T07:56:33.484Z,11.17
2022-11-18T07:59:00.173Z,13.15
2022-11-18T08:01:31.037Z,13.55
2022-11-18T08:04:04.008Z,16.00
2022-11-18T08:06:33.109Z,11.57
2022-11-18T08:08:59.941Z,10.35
2022-11-18T08:11:26.727Z,12.70
2022-11-18T08:13:53.814Z,13.15
2022-11-18T08:16:23.785Z,12.27
2022-11-18T08:18:50.813Z,12.23
2022-11-18T08:21:19.935Z,13.85
2022-11-18T08:23:55.862Z,11.80
2022-11-18T08:26:23.206Z,12.80
2022-11-18T08:28:50.437Z,14.95
2022-11-18T08:31:25.606Z,12.68
2022-11-18T08:34:05.324Z,12.73
2022-11-18T08:36:34.954Z,11.52
2022-11-18T08:39:04.103Z,12.32
2022-11-18T08:41:39.533Z,16.45
2022-11-18T08:44:07.712Z,13.32
2022-11-18T08:46:34.461Z,14.10
2022-11-18T08:49:01.493Z,19.48
2022-11-18T08:51:28.620Z,16.38
2022-11-18T08:53:55.508Z,16.55
2022-11-18T08:56:24.323Z,15.45
2022-11-18T08:58:51.529Z,19.23
2022-11-18T09:01:18.554Z,16.70
2022-11-18T09:03:45.693Z,19.25
2022-11-18T09:06:15.763Z,16.05
2022-11-18T09:08:43.162Z,21.88
2022-11-18T09:11:15.451Z,23.33
2022-11-18T09:16:31.589Z,21.50
2022-11-18T09:19:04.904Z,18.70
2022-11-18T09:21:40.954Z,21.07
2022-11-18T09:24:08.973Z,23.02
2022-11-18T09:26:35.698Z,16.98
2022-11-18T09:29:02.448Z,19.58
2022-11-18T09:31:29.313Z,19.25
2022-11-18T09:33:56.006Z,18.00
2022-11-18T09:36:25.163Z,18.98
2022-11-18T09:38:53.481Z,17.45
2022-11-18T09:41:41.635Z,17.63
2022-11-18T09:44:23.038Z,17.63
2022-11-18T09:47:01.909Z,21.13
2022-11-18T09:49:40.539Z,20.17
2022-11-18T09:52:19.286Z,20.25
2022-11-18T09:54:46.759Z,20.40
2022-11-18T09:57:17.082Z,18.98
2022-11-18T09:59:44.683Z,19.35
2022-11-18T10:02:23.271Z,18.63
2022-11-18T10:04:51.319Z,16.05
2022-11-18T10:07:26.324Z,19.05
2022-11-18T10:09:56.675Z,19.70
2022-11-18T10:12:23.373Z,20.75
2022-11-18T10:15:02.321Z,19.92
2022-11-18T10:17:45.635Z,20.35
2022-11-18T10:20:28.914Z,18.73
2022-11-18T10:23:13.902Z,20.42
2022-11-18T10:25:40.713Z,22.40
2022-11-18T10:28:22.050Z,18.58
2022-11-18T10:30:49.350Z,20.40
2022-11-18T10:33:19.713Z,18.77
2022-11-18T10:35:46.503Z,19.35
2022-11-18T10:38:13.158Z,20.17
2022-11-18T10:41:02.364Z,19.38
2022-11-18T10:43:51.613Z,20.08
2022-11-18T10:46:26.582Z,23.38
2022-11-18T10:49:16.420Z,21.00
2022-11-18T10:52:03.785Z,26.42
2022-11-18T10:54:30.451Z,22.98
2022-11-18T10:57:01.837Z,21.90
2022-11-18T10:59:41.836Z,17.80
2022-11-18T11:02:17.409Z,20.25
2022-11-18T11:04:46.059Z,22.88
2022-11-18T11:07:37.620Z,22.30
2022-11-18T11:10:10.136Z,19.23
2022-11-18T11:12:47.034Z,17.02
2022-11-18T11:15:19.390Z,21.23
2022-11-18T11:18:12.240Z,21.38
2022-11-18T11:20:39.263Z,18.67
2022-11-18T11:23:18.999Z,17.38
2022-11-18T11:28:55.635Z,18.92
2022-11-18T11:31:46.636Z,21.58
2022-11-18T11:34:25.412Z,19.77
2022-11-18T11:37:14.318Z,21.38
2022-11-18T11:40:05.113Z,22.02
2022-11-18T11:42:53.843Z,20.00
2022-11-18T11:45:58.234Z,24.80
2022-11-18T11:48:44.361Z,24.20
2022-11-18T11:51:31.300Z,20.40
2022-11-18T11:54:06.875Z,22.42
2022-11-18T11:57:30.635Z,19.75
2022-11-18T12:00:05.726Z,23.30
2022-11-18T12:02:53.438Z,24.90
2022-11-18T12:05:35.977Z,23.58
2022-11-18T12:08:21.078Z,25.20
2022-11-18T12:10:51.085Z,23.00
2022-11-18T12:13:22.032Z,21.67
2022-11-18T12:16:07.021Z,21.90
2022-11-18T12:18:42.367Z,25.55
2022-11-18T12:21:09.326Z,21.05
2022-11-18T12:23:36.074Z,18.90
2022-11-18T12:26:09.104Z,19.25
2022-11-18T12:28:41.627Z,22.73
2022-11-18T12:31:20.613Z,20.48
2022-11-18T12:33:54.918Z,21.02
2022-11-18T12:36:42.374Z,24.50
2022-11-18T12:39:27.588Z,21.25
2022-11-18T12:42:14.365Z,26.13
2022-11-18T12:44:42.347Z,25.98
2022-11-18T12:47:10.763Z,22.48
2022-11-18T12:49:37.428Z,22.98
2022-11-18T12:52:25.703Z,26.48
2022-11-18T12:54:52.754Z,22.10
2022-11-18T12:57:21.748Z,22.20
2022-11-18T12:59:48.803Z,25.00
2022-11-18T13:02:22.647Z,20.48
2022-11-18T13:05:10.031Z,21.92
2022-11-18T13:08:09.827Z,22.30
2022-11-18T13:10:45.910Z,22.17
2022-11-18T13:13:21.675Z,20.92
2022-11-18T13:16:09.619Z,23.17
2022-11-18T13:18:49.039Z,27.88
2022-11-18T13:21:42.361Z,20.02
2022-11-18T13:24:13.125Z,22.02
2022-11-18T13:26:42.743Z,20.88
2022-11-18T13:29:26.494Z,20.30
2022-11-18T13:32:11.905Z,19.40
2022-11-18T13:34:53.361Z,17.05
2022-11-18T13:37:26.169Z,18.75
2022-11-18T13:39:53.662Z,20.88
2022-11-18T13:42:24.923Z,19.25
2022-11-18T13:44:55.417Z,24.67
2022-11-18T13:47:48.000Z,20.50
2022-11-18T13:50:24.369Z,18.20
2022-11-18T13:53:03.595Z,21.38
2022-11-18T13:55:41.382Z,18.65
2022-11-18T13:58:26.270Z,22.65
2022-11-18T14:01:04.868Z,20.05
2022-11-18T14:03:52.048Z,18.10
2022-11-18T14:06:26.853Z,22.40
2022-11-18T14:09:07.136Z,17.23
2022-11-18T14:11:39.721Z,21.90
2022-11-18T14:14:07.681Z,20.00
2022-11-18T14:16:37.134Z,18.17
2022-11-18T14:19:04.307Z,16.88
2022-11-18T14:21:36.250Z,18.85
2022-11-18T14:24:03.896Z,19.55
2022-11-18T14:26:33.814Z,18.90
2022-11-18T14:29:14.516Z,17.00
2022-11-18T14:31:42.634Z,20.80
2022-11-18T14:34:23.918Z,17.75
2022-11-18T14:36:51.794Z,17.23
2022-11-18T14:39:27.680Z,18.90
2022-11-18T14:41:55.632Z,17.13
2022-11-18T14:44:24.469Z,19.30
2022-11-18T14:46:57.923Z,13.38
2022-11-18T14:49:26.806Z,14.48
2022-11-18T14:51:54.758Z,15.57
2022-11-18T14:54:28.002Z,16.33
2022-11-18T14:57:00.982Z,15.18
2022-11-18T14:59:27.711Z,17.90
2022-11-18T15:01:56.500Z,19.75
2022-11-18T15:04:23.635Z,19.77
2022-11-18T15:06:50.552Z,21.73
2022-11-18T15:09:17.355Z,18.02
2022-11-18T15:11:44.645Z,19.77
2022-11-18T15:14:11.487Z,17.67
2022-11-18T15:16:38.215Z,18.83
2022-11-18T15:19:06.235Z,24.83
2022-11-18T15:21:33.526Z,19.83
2022-11-18T15:24:00.233Z,24.73
2022-11-18T15:26:30.287Z,30.25
2022-11-18T15:28:57.776Z,24.60
2022-11-18T15:31:25.590Z,28.23
2022-11-18T15:33:52.767Z,27.85
2022-11-18T15:36:24.173Z,28.10
2022-11-18T15:38:52.180Z,26.75
2022-11-18T15:41:27.134Z,28.88
2022-11-18T15:43:55.667Z,25.73
2022-11-18T15:46:24.095Z,29.80
2022-11-18T15:48:55.596Z,29.17
2022-11-18T15:51:23.652Z,28.42
2022-11-18T15:53:50.667Z,27.90
2022-11-18T15:56:23.549Z,24.52
2022-11-18T15:59:01.895Z,27.63
2022-11-18T16:01:34.363Z,32.50
2022-11-18T16:04:01.893Z,30.15
2022-11-18T16:06:28.675Z,26.85
2022-11-18T16:08:59.640Z,35.55
2022-11-18T16:11:46.478Z,30.63
2022-11-18T16:14:14.995Z,33.28
2022-11-18T16:16:43.245Z,29.42
2022-11-18T16:19:12.174Z,32.97
2022-11-18T16:21:42.402Z,30.15
2022-11-18T16:24:13.158Z,29.58
2022-11-18T16:26:40.048Z,30.55
2022-11-18T16:29:07.693Z,28.92
2022-11-18T16:31:40.713Z,28.10
2022-11-18T16:34:25.644Z,28.30
2022-11-18T16:37:01.517Z,26.80
2022-11-18T16:39:29.230Z,29.10
2022-11-18T16:42:03.781Z,27.25
2022-11-18T16:44:35.166Z,24.05
2022-11-18T16:47:03.762Z,28.13
2022-11-18T16:49:32.594Z,24.70
2022-11-18T16:51:59.485Z,27.30
2022-11-18T16:54:30.999Z,23.25
2022-11-18T16:56:59.184Z,27.90
2022-11-18T16:59:30.749Z,25.17
2022-11-18T17:01:59.485Z,29.52
2022-11-18T17:04:28.330Z,27.75
2022-11-18T17:06:55.285Z,26.00
2022-11-18T17:09:24.282Z,28.85
2022-11-18T17:11:53.372Z,25.95
2022-11-18T17:14:20.463Z,31.17
2022-11-18T17:16:47.533Z,26.00
2022-11-18T17:19:21.797Z,26.80
2022-11-18T17:21:49.793Z,32.50
2022-11-18T17:24:20.193Z,27.38
2022-11-18T17:26:48.367Z,30.27
2022-11-18T17:29:15.287Z,27.73
2022-11-18T17:31:42.470Z,30.88
2022-11-18T17:34:14.018Z,30.45
2022-11-18T17:36:41.666Z,27.92
2022-11-18T17:39:10.886Z,31.17
2022-11-18T17:41:56.792Z,32.45
2022-11-18T17:44:24.501Z,33.05
2022-11-18T17:46:51.309Z,31.83
2022-11-18T17:49:19.302Z,33.97
2022-11-18T17:51:46.185Z,39.90
2022-11-18T17:54:14.259Z,37.35
2022-11-18T17:56:41.354Z,37.50
2022-11-18T17:59:08.309Z,38.17
2022-11-18T18:01:35.751Z,35.75
2022-11-18T18:04:03.038Z,36.63
2022-11-18T18:06:29.858Z,37.85
2022-11-18T18:08:57.748Z,37.67
2022-11-18T18:11:25.797Z,38.50
2022-11-18T18:14:11.422Z,37.65
2022-11-18T18:16:50.951Z,37.50
2022-11-18T18:19:20.248Z,39.65
2022-11-18T18:21:47.668Z,41.67
2022-11-18T18:24:17.233Z,42.92
2022-11-18T18:26:44.627Z,35.30
2022-11-18T18:29:12.432Z,40.40
2022-11-18T18:31:39.362Z,43.85
2022-11-18T18:34:06.114Z,41.03
2022-11-18T18:36:33.226Z,39.28
2022-11-18T18:39:00.913Z,41.85
2022-11-18T18:41:28.020Z,45.53
2022-11-18T18:43:54.864Z,43.72
2022-11-18T18:46:30.459Z,50.20
2022-11-18T18:49:27.308Z,42.00
2022-11-18T18:51:56.172Z,39.72
2022-11-18T18:54:23.096Z,48.30
2022-11-18T18:56:49.904Z,44.90
2022-11-18T18:59:16.786Z,41.88
2022-11-18T19:01:43.611Z,42.80
2022-11-18T19:04:13.012Z,44.10
2022-11-18T19:06:59.834Z,40.13
2022-11-18T19:09:27.305Z,38.30
2022-11-18T19:12:13.582Z,36.55
2022-11-18T19:14:40.406Z,43.70
2022-11-18T19:20:12.682Z,42.35
2022-11-18T19:22:39.339Z,43.47
2022-11-18T19:25:06.376Z,41.85
2022-11-18T19:27:36.273Z,38.72
2022-11-18T19:30:03.098Z,42.72
2022-11-18T19:32:29.805Z,43.03
2022-11-18T19:34:56.558Z,37.70
2022-11-18T19:37:23.242Z,45.63
2022-11-18T19:39:49.927Z,38.38
2022-11-18T19:42:16.666Z,46.45
2022-11-18T19:44:43.320Z,45.10
2022-11-18T19:47:10.101Z,40.78
2022-11-18T19:49:36.855Z,40.50
2022-11-18T19:52:03.678Z,38.72
2022-11-18T19:54:30.441Z,45.75
2022-11-18T19:56:57.481Z,39.60
2022-11-18T19:59:24.166Z,42.35
2022-11-18T20:01:50.895Z,40.75
2022-11-18T20:04:17.708Z,36.70
2022-11-18T20:06:45.546Z,40.00
2022-11-18T20:09:12.951Z,41.80
2022-11-18T20:11:39.861Z,36.17
2022-11-18T20:14:08.231Z,39.95
2022-11-18T20:16:37.021Z,38.47
2022-11-18T20:19:10.556Z,46.13
2022-11-18T20:21:39.079Z,40.15
2022-11-18T20:24:07.216Z,40.80
2022-11-18T20:26:37.442Z,40.75
2022-11-18T20:29:05.753Z,46.60
2022-11-18T20:31:36.047Z,44.53
2022-11-18T20:34:04.092Z,38.65
2022-11-18T20:36:33.228Z,38.35
2022-11-18T20:39:11.261Z,35.72
2022-11-18T20:41:38.000Z,36.65
2022-11-18T20:44:04.987Z,38.15
2022-11-18T20:46:33.153Z,40.78
2022-11-18T20:49:00.162Z,45.30
2022-11-18T20:51:28.332Z,42.03
2022-11-18T20:53:56.102Z,39.08
2022-11-18T20:56:25.436Z,37.30
2022-11-18T20:58:52.729Z,42.22
2022-11-18T21:01:28.252Z,35.20
2022-11-18T21:03:57.848Z,41.83
2022-11-18T21:06:27.313Z,39.47
2022-11-18T21:08:59.641Z,42.30
2022-11-18T21:11:27.151Z,40.05
2022-11-18T21:14:15.098Z,36.47
2022-11-18T21:16:44.903Z,47.15
2022-11-18T21:19:12.159Z,50.30
2022-11-18T21:21:45.209Z,45.38
2022-11-18T21:24:17.514Z,41.22
2022-11-18T21:26:45.995Z,37.05
2022-11-18T21:29:14.282Z,37.00
2022-11-18T21:31:41.567Z,36.17
2022-11-18T21:34:09.044Z,39.65
2022-11-18T21:36:38.921Z,39.08
2022-11-18T21:39:10.482Z,40.30
2022-11-18T21:41:37.255Z,41.35
2022-11-18T21:44:06.275Z,38.63
2022-11-18T21:46:35.154Z,37.00
2022-11-18T21:49:02.533Z,36.30
2022-11-18T21:51:31.302Z,35.97
2022-11-18T21:53:59.051Z,35.13
2022-11-18T21:56:33.201Z,38.72
2022-11-18T21:59:02.188Z,38.88
2022-11-18T22:01:31.785Z,37.92
2022-11-18T22:04:00.264Z,34.08
2022-11-18T22:06:32.584Z,40.72
2022-11-18T22:09:00.299Z,39.63
2022-11-18T22:11:28.079Z,34.95
2022-11-18T22:13:55.048Z,37.20
2022-11-18T22:16:23.587Z,33.45
2022-11-18T22:18:57.307Z,39.58
2022-11-18T22:21:26.487Z,37.28
2022-11-18T22:23:56.904Z,37.72
2022-11-18T22:26:23.633Z,40.72
2022-11-18T22:28:56.013Z,37.95
2022-11-18T22:31:23.952Z,38.50
2022-11-18T22:33:51.639Z,37.50
2022-11-18T22:36:20.566Z,37.13
2022-11-18T22:38:47.597Z,40.90
2022-11-18T22:41:38.371Z,39.35
2022-11-18T22:44:08.055Z,37.63
2022-11-18T22:46:36.601Z,33.50
2022-11-18T22:49:03.619Z,35.40
2022-11-18T22:51:30.309Z,39.38
2022-11-18T22:54:22.780Z,40.53
2022-11-18T22:56:43.865Z,36.95
2022-11-18T22:59:12.254Z,34.47
2022-11-18T23:01:39.273Z,37.40
2022-11-18T23:04:06.490Z,36.83
2022-11-18T23:06:33.450Z,32.35
2022-11-18T23:09:00.285Z,36.50
2022-11-18T23:11:46.025Z,36.95
2022-11-18T23:14:12.679Z,35.15
2022-11-18T23:16:41.715Z,43.17
2022-11-18T23:19:10.663Z,34.83
2022-11-18T23:21:37.983Z,30.27
2022-11-18T23:24:05.138Z,31.05
2022-11-18T23:26:32.113Z,34.40
2022-11-18T23:28:59.067Z,28.92
2022-11-18T23:31:27.478Z,29.50
2022-11-18T23:33:57.191Z,32.20
2022-11-18T23:36:25.217Z,32.75
2022-11-18T23:38:52.762Z,31.25
2022-11-18T23:41:20.184Z,30.38
2022-11-18T23:43:48.366Z,31.15
2022-11-18T23:46:16.960Z,30.90
2022-11-18T23:48:44.372Z,25.92
2022-11-18T23:51:12.399Z,33.15
2022-11-18T23:53:39.979Z,31.52
2022-11-18T23:56:15.493Z,30.42
2022-11-18T23:58:48.047Z,35.40
